ITY964 UAAA-UZSS
Flight info
| Callsign | ITY964 |
|---|---|
| Flight time | N/A |
| Altitude | 40000 |
| Route | TIPSA1A TIPSA L143 TISIB L141 ILGOZ Y92 TITAR TITAR2X |
| Aircraft | A359/H-SDE2E3GHIJ3J4J5LM1ORWXY/LB1D1 |
Departure
| Time | 2026-04-23 05:51 |
|---|---|
| Airport | Almaty International Airport (UAAA) |
Arrival
| Time | N/A |
|---|---|
| Airport | Samarkand International Airport (UZSS) |
| Time | Latitude | Longitude | Altitude | Speed | Heading |
|---|---|---|---|---|---|
| 2026-04-23 05:35 | 43.35127 | 77.01958 | 2227 ft | 0 kts | 5° |
| 2026-04-23 05:43 | 43.35126 | 77.01958 | 2235 ft | 1 kts | 5° |
| 2026-04-23 05:43 | 43.35112 | 77.01956 | 2231 ft | 3 kts | 4° |
| 2026-04-23 05:44 | 43.35092 | 77.01954 | 2235 ft | 3 kts | 2° |
| 2026-04-23 05:44 | 43.35073 | 77.01953 | 2235 ft | 2 kts | 3° |
| 2026-04-23 05:44 | 43.35058 | 77.01952 | 2235 ft | 3 kts | 18° |
| 2026-04-23 05:44 | 43.35045 | 77.01945 | 2235 ft | 3 kts | 50° |
| 2026-04-23 05:45 | 43.35036 | 77.01926 | 2231 ft | 3 kts | 72° |
| 2026-04-23 05:45 | 43.35031 | 77.01900 | 2235 ft | 3 kts | 85° |
| 2026-04-23 05:45 | 43.35030 | 77.01876 | 2235 ft | 1 kts | 92° |
| 2026-04-23 05:45 | 43.35030 | 77.01867 | 2235 ft | 0 kts | 92° |
| 2026-04-23 05:47 | 43.35030 | 77.01882 | 2235 ft | 7 kts | 93° |
| 2026-04-23 05:48 | 43.35025 | 77.02027 | 2235 ft | 22 kts | 93° |
| 2026-04-23 05:48 | 43.34989 | 77.02235 | 2235 ft | 26 kts | 128° |
| 2026-04-23 05:48 | 43.34898 | 77.02350 | 2228 ft | 0 kts | 141° |
| 2026-04-23 05:49 | 43.34895 | 77.02354 | 2229 ft | 3 kts | 141° |
| 2026-04-23 05:49 | 43.34856 | 77.02397 | 2235 ft | 11 kts | 141° |
| 2026-04-23 05:49 | 43.34775 | 77.02461 | 2236 ft | 16 kts | 155° |
| 2026-04-23 05:50 | 43.34748 | 77.02513 | 2235 ft | 3 kts | 84° |
| 2026-04-23 05:50 | 43.34756 | 77.02545 | 2235 ft | 0 kts | 65° |
| 2026-04-23 05:50 | 43.34785 | 77.02627 | 2230 ft | 38 kts | 64° |
| 2026-04-23 05:50 | 43.34931 | 77.02932 | 2225 ft | 54 kts | 53° |
| 2026-04-23 05:51 | 43.35283 | 77.03623 | 2232 ft | 121 kts | 56° |
| 2026-04-23 05:51 | 43.35867 | 77.04799 | 2242 ft | 175 kts | 52° |
| 2026-04-23 05:51 | 43.36606 | 77.06225 | 2732 ft | 193 kts | 48° |
| 2026-04-23 05:51 | 43.37452 | 77.07791 | 3419 ft | 207 kts | 52° |
| 2026-04-23 05:52 | 43.38279 | 77.09480 | 4027 ft | 222 kts | 53° |
| 2026-04-23 05:52 | 43.39173 | 77.11315 | 4370 ft | 246 kts | 53° |
| 2026-04-23 05:52 | 43.40176 | 77.13348 | 4733 ft | 267 kts | 52° |
| 2026-04-23 05:52 | 43.41241 | 77.15499 | 5236 ft | 277 kts | 52° |
| 2026-04-23 05:53 | 43.42513 | 77.17514 | 5932 ft | 280 kts | 37° |
| 2026-04-23 05:53 | 43.44197 | 77.18801 | 6613 ft | 278 kts | 13° |
| 2026-04-23 05:53 | 43.46111 | 77.18942 | 7181 ft | 277 kts | 344° |
| 2026-04-23 05:53 | 43.47799 | 77.17763 | 7782 ft | 274 kts | 313° |
| 2026-04-23 05:54 | 43.48815 | 77.15593 | 8420 ft | 272 kts | 284° |
| 2026-04-23 05:54 | 43.49134 | 77.13032 | 9032 ft | 274 kts | 270° |
| 2026-04-23 05:54 | 43.49124 | 77.10436 | 9677 ft | 276 kts | 264° |
| 2026-04-23 05:54 | 43.48970 | 77.07789 | 10244 ft | 281 kts | 262° |
| 2026-04-23 05:55 | 43.48780 | 77.05037 | 10524 ft | 296 kts | 262° |
| 2026-04-23 05:55 | 43.48597 | 77.02138 | 10785 ft | 312 kts | 263° |
| 2026-04-23 05:55 | 43.48447 | 76.99097 | 11064 ft | 323 kts | 264° |
| 2026-04-23 05:55 | 43.48339 | 76.95984 | 11515 ft | 328 kts | 265° |
| 2026-04-23 05:56 | 43.48260 | 76.92837 | 12076 ft | 329 kts | 266° |
| 2026-04-23 05:56 | 43.48191 | 76.89680 | 12637 ft | 331 kts | 266° |
| 2026-04-23 05:56 | 43.48125 | 76.86505 | 13182 ft | 332 kts | 266° |
| 2026-04-23 05:56 | 43.48061 | 76.83360 | 13729 ft | 333 kts | 266° |
| 2026-04-23 05:57 | 43.47991 | 76.80166 | 14212 ft | 336 kts | 266° |
| 2026-04-23 05:57 | 43.47918 | 76.76944 | 14674 ft | 338 kts | 266° |
| 2026-04-23 05:57 | 43.47843 | 76.73702 | 15148 ft | 340 kts | 266° |
| 2026-04-23 05:57 | 43.47765 | 76.70440 | 15594 ft | 342 kts | 265° |
| 2026-04-23 05:58 | 43.47685 | 76.67153 | 16061 ft | 344 kts | 265° |
| 2026-04-23 05:58 | 43.47603 | 76.63847 | 16528 ft | 346 kts | 265° |
| 2026-04-23 05:58 | 43.47519 | 76.60526 | 16977 ft | 349 kts | 265° |
| 2026-04-23 05:58 | 43.47433 | 76.57184 | 17431 ft | 351 kts | 265° |
| 2026-04-23 05:59 | 43.47348 | 76.53863 | 17881 ft | 353 kts | 265° |
| 2026-04-23 05:59 | 43.47260 | 76.50479 | 18330 ft | 355 kts | 265° |
| 2026-04-23 05:59 | 43.47170 | 76.47071 | 18687 ft | 357 kts | 265° |
| 2026-04-23 05:59 | 43.47079 | 76.43644 | 19090 ft | 359 kts | 265° |
| 2026-04-23 06:00 | 43.46987 | 76.40205 | 19496 ft | 360 kts | 265° |
| 2026-04-23 06:00 | 43.46893 | 76.36755 | 19896 ft | 361 kts | 265° |
| 2026-04-23 06:00 | 43.46798 | 76.33298 | 20294 ft | 363 kts | 265° |
| 2026-04-23 06:00 | 43.46701 | 76.29813 | 20664 ft | 365 kts | 265° |
| 2026-04-23 06:01 | 43.46604 | 76.26367 | 21047 ft | 366 kts | 265° |
| 2026-04-23 06:01 | 43.46504 | 76.22856 | 21423 ft | 368 kts | 264° |
| 2026-04-23 06:01 | 43.46403 | 76.19332 | 21786 ft | 370 kts | 264° |
| 2026-04-23 06:01 | 43.46300 | 76.15783 | 22167 ft | 371 kts | 264° |
| 2026-04-23 06:02 | 43.46196 | 76.12228 | 22532 ft | 373 kts | 264° |
| 2026-04-23 06:02 | 43.46090 | 76.08658 | 22883 ft | 375 kts | 264° |
| 2026-04-23 06:02 | 43.45981 | 76.05059 | 23248 ft | 376 kts | 264° |
| 2026-04-23 06:02 | 43.45871 | 76.01454 | 23603 ft | 378 kts | 264° |
| 2026-04-23 06:03 | 43.45760 | 75.97830 | 23878 ft | 380 kts | 264° |
| 2026-04-23 06:03 | 43.45648 | 75.94189 | 24195 ft | 381 kts | 264° |
| 2026-04-23 06:03 | 43.45537 | 75.90598 | 24526 ft | 382 kts | 263° |
| 2026-04-23 06:03 | 43.45423 | 75.86946 | 24855 ft | 382 kts | 263° |
| 2026-04-23 06:04 | 43.45306 | 75.83284 | 25162 ft | 383 kts | 263° |
| 2026-04-23 06:04 | 43.45188 | 75.79616 | 25489 ft | 384 kts | 264° |
| 2026-04-23 06:04 | 43.45091 | 75.75933 | 25827 ft | 386 kts | 265° |
| 2026-04-23 06:04 | 43.45013 | 75.72237 | 26165 ft | 387 kts | 265° |
| 2026-04-23 06:05 | 43.44931 | 75.68537 | 26527 ft | 388 kts | 264° |
| 2026-04-23 06:05 | 43.44835 | 75.64826 | 26898 ft | 388 kts | 264° |
| 2026-04-23 06:05 | 43.44726 | 75.61158 | 27285 ft | 389 kts | 264° |
| 2026-04-23 06:05 | 43.44605 | 75.57427 | 27673 ft | 391 kts | 264° |
| 2026-04-23 06:06 | 43.44477 | 75.53688 | 28065 ft | 392 kts | 263° |
| 2026-04-23 06:06 | 43.44345 | 75.49936 | 28491 ft | 393 kts | 263° |
| 2026-04-23 06:06 | 43.44211 | 75.46175 | 28913 ft | 395 kts | 263° |
| 2026-04-23 06:06 | 43.44075 | 75.42394 | 29345 ft | 396 kts | 263° |
| 2026-04-23 06:07 | 43.43938 | 75.38603 | 29782 ft | 397 kts | 263° |
| 2026-04-23 06:07 | 43.43800 | 75.34802 | 30187 ft | 399 kts | 263° |
| 2026-04-23 06:07 | 43.43653 | 75.30987 | 30577 ft | 400 kts | 262° |
| 2026-04-23 06:07 | 43.43289 | 75.27198 | 30979 ft | 399 kts | 256° |
| 2026-04-23 06:08 | 43.42572 | 75.23567 | 31362 ft | 400 kts | 249° |
| 2026-04-23 06:08 | 43.41451 | 75.20068 | 31763 ft | 401 kts | 241° |
| 2026-04-23 06:08 | 43.39960 | 75.16807 | 32143 ft | 404 kts | 235° |
| 2026-04-23 06:08 | 43.38229 | 75.13752 | 32502 ft | 407 kts | 232° |
| 2026-04-23 06:09 | 43.36502 | 75.10663 | 32845 ft | 408 kts | 235° |
| 2026-04-23 06:09 | 43.34809 | 75.07522 | 33216 ft | 409 kts | 235° |
| 2026-04-23 06:09 | 43.33126 | 75.04360 | 33561 ft | 411 kts | 235° |
| 2026-04-23 06:09 | 43.32023 | 75.02251 | 33758 ft | 412 kts | 236° |
| 2026-04-23 06:10 | 43.29810 | 74.97941 | 34164 ft | 414 kts | 236° |
| 2026-04-23 06:10 | 43.28185 | 74.94733 | 34397 ft | 416 kts | 236° |
| 2026-04-23 06:10 | 43.26551 | 74.91490 | 34671 ft | 417 kts | 236° |
| 2026-04-23 06:10 | 43.24902 | 74.88212 | 35045 ft | 417 kts | 236° |
| 2026-04-23 06:11 | 43.23257 | 74.84946 | 35390 ft | 417 kts | 236° |
| 2026-04-23 06:11 | 43.21608 | 74.81677 | 35742 ft | 416 kts | 236° |
| 2026-04-23 06:11 | 43.19961 | 74.78417 | 36108 ft | 416 kts | 236° |
| 2026-04-23 06:11 | 43.18872 | 74.76264 | 36314 ft | 416 kts | 236° |
| 2026-04-23 06:12 | 43.17220 | 74.73000 | 36628 ft | 417 kts | 235° |
| 2026-04-23 06:12 | 43.15028 | 74.68675 | 37085 ft | 417 kts | 235° |
| 2026-04-23 06:12 | 43.11723 | 74.62167 | 37773 ft | 416 kts | 235° |
| 2026-04-23 06:13 | 43.10067 | 74.58912 | 38110 ft | 416 kts | 235° |
| 2026-04-23 06:13 | 43.08969 | 74.56763 | 38310 ft | 416 kts | 234° |
| 2026-04-23 06:13 | 43.07262 | 74.53568 | 38673 ft | 416 kts | 231° |
| 2026-04-23 06:13 | 43.05344 | 74.50600 | 38925 ft | 417 kts | 227° |
| 2026-04-23 06:14 | 43.03319 | 74.47744 | 39117 ft | 419 kts | 226° |
| 2026-04-23 06:14 | 43.01258 | 74.44918 | 39320 ft | 421 kts | 226° |
| 2026-04-23 06:14 | 42.99178 | 74.42099 | 39524 ft | 422 kts | 225° |
| 2026-04-23 06:14 | 42.97091 | 74.39280 | 39714 ft | 423 kts | 225° |
| 2026-04-23 06:15 | 42.95000 | 74.36454 | 39902 ft | 423 kts | 225° |
| 2026-04-23 06:15 | 42.92901 | 74.33612 | 40013 ft | 426 kts | 226° |
| 2026-04-23 06:15 | 42.88695 | 74.27909 | 40026 ft | 430 kts | 226° |
| 2026-04-23 06:16 | 42.84457 | 74.22162 | 40037 ft | 430 kts | 226° |
| 2026-04-23 06:16 | 42.80220 | 74.16425 | 40044 ft | 429 kts | 226° |
| 2026-04-23 06:17 | 42.75982 | 74.10698 | 40046 ft | 429 kts | 225° |